sensor_id;sensor_type;location;lat;lon;timestamp;P1;durP1;ratioP1;P2;durP2;ratioP2
30380;SDS011;17169;50.966;11.038;2022-08-19T00:01:50;27.40;;;19.38;;
30380;SDS011;17169;50.966;11.038;2022-08-19T00:04:54;23.88;;;18.52;;
30380;SDS011;17169;50.966;11.038;2022-08-19T00:07:58;28.70;;;19.13;;
30380;SDS011;17169;50.966;11.038;2022-08-19T00:11:00;29.58;;;19.17;;
30380;SDS011;17169;50.966;11.038;2022-08-19T00:14:03;25.27;;;17.88;;
30380;SDS011;17169;50.966;11.038;2022-08-19T00:17:08;24.83;;;16.92;;
30380;SDS011;17169;50.966;11.038;2022-08-19T00:20:12;20.95;;;15.80;;
30380;SDS011;17169;50.966;11.038;2022-08-19T00:23:19;18.25;;;14.65;;
30380;SDS011;17169;50.966;11.038;2022-08-19T00:26:21;14.48;;;11.15;;
30380;SDS011;17169;50.966;11.038;2022-08-19T00:29:24;18.27;;;11.60;;
30380;SDS011;17169;50.966;11.038;2022-08-19T00:32:27;15.43;;;11.43;;
30380;SDS011;17169;50.966;11.038;2022-08-19T00:35:29;14.00;;;10.70;;
30380;SDS011;17169;50.966;11.038;2022-08-19T00:38:34;18.55;;;12.20;;
30380;SDS011;17169;50.966;11.038;2022-08-19T00:41:43;14.38;;;11.68;;
30380;SDS011;17169;50.966;11.038;2022-08-19T00:44:48;18.02;;;11.18;;
30380;SDS011;17169;50.966;11.038;2022-08-19T00:47:51;13.60;;;10.05;;
30380;SDS011;17169;50.966;11.038;2022-08-19T00:50:53;12.23;;;8.75;;
30380;SDS011;17169;50.966;11.038;2022-08-19T00:53:58;11.30;;;8.13;;
30380;SDS011;17169;50.966;11.038;2022-08-19T01:00:07;10.32;;;8.10;;
30380;SDS011;17169;50.966;11.038;2022-08-19T01:03:15;12.38;;;9.60;;
30380;SDS011;17169;50.966;11.038;2022-08-19T01:06:20;12.05;;;8.57;;
30380;SDS011;17169;50.966;11.038;2022-08-19T01:09:24;11.82;;;9.20;;
30380;SDS011;17169;50.966;11.038;2022-08-19T01:12:26;11.93;;;9.15;;
30380;SDS011;17169;50.966;11.038;2022-08-19T01:15:29;11.13;;;9.57;;
30380;SDS011;17169;50.966;11.038;2022-08-19T01:18:36;11.90;;;9.30;;
30380;SDS011;17169;50.966;11.038;2022-08-19T01:21:43;12.27;;;9.18;;
30380;SDS011;17169;50.966;11.038;2022-08-19T01:24:53;12.35;;;9.90;;
30380;SDS011;17169;50.966;11.038;2022-08-19T01:27:55;12.43;;;9.93;;
30380;SDS011;17169;50.966;11.038;2022-08-19T01:30:58;11.20;;;9.88;;
30380;SDS011;17169;50.966;11.038;2022-08-19T01:34:01;12.90;;;9.32;;
30380;SDS011;17169;50.966;11.038;2022-08-19T01:37:05;13.55;;;9.73;;
30380;SDS011;17169;50.966;11.038;2022-08-19T01:40:12;11.43;;;9.23;;
30380;SDS011;17169;50.966;11.038;2022-08-19T01:43:15;13.35;;;10.55;;
30380;SDS011;17169;50.966;11.038;2022-08-19T01:46:19;13.93;;;10.35;;
30380;SDS011;17169;50.966;11.038;2022-08-19T01:49:22;12.93;;;9.20;;
30380;SDS011;17169;50.966;11.038;2022-08-19T01:52:27;11.98;;;9.27;;
30380;SDS011;17169;50.966;11.038;2022-08-19T01:55:30;12.48;;;10.13;;
30380;SDS011;17169;50.966;11.038;2022-08-19T01:58:34;12.80;;;9.57;;
30380;SDS011;17169;50.966;11.038;2022-08-19T02:01:42;13.15;;;9.98;;
30380;SDS011;17169;50.966;11.038;2022-08-19T02:04:45;13.68;;;10.98;;
30380;SDS011;17169;50.966;11.038;2022-08-19T02:07:47;14.52;;;10.77;;
30380;SDS011;17169;50.966;11.038;2022-08-19T02:10:51;14.00;;;10.43;;
30380;SDS011;17169;50.966;11.038;2022-08-19T02:13:54;15.90;;;10.75;;
30380;SDS011;17169;50.966;11.038;2022-08-19T02:16:57;15.15;;;11.10;;
30380;SDS011;17169;50.966;11.038;2022-08-19T02:19:59;19.60;;;11.73;;
30380;SDS011;17169;50.966;11.038;2022-08-19T02:23:02;15.20;;;10.70;;
30380;SDS011;17169;50.966;11.038;2022-08-19T02:26:06;15.55;;;11.75;;
30380;SDS011;17169;50.966;11.038;2022-08-19T02:29:09;14.13;;;11.52;;
30380;SDS011;17169;50.966;11.038;2022-08-19T02:32:11;13.63;;;10.77;;
30380;SDS011;17169;50.966;11.038;2022-08-19T02:35:14;17.02;;;11.25;;
30380;SDS011;17169;50.966;11.038;2022-08-19T02:38:16;15.98;;;11.63;;
30380;SDS011;17169;50.966;11.038;2022-08-19T02:41:30;17.25;;;11.95;;
30380;SDS011;17169;50.966;11.038;2022-08-19T02:44:33;14.63;;;11.18;;
30380;SDS011;17169;50.966;11.038;2022-08-19T02:47:36;22.23;;;15.60;;
30380;SDS011;17169;50.966;11.038;2022-08-19T02:50:38;21.85;;;14.77;;
30380;SDS011;17169;50.966;11.038;2022-08-19T02:53:41;15.27;;;12.20;;
30380;SDS011;17169;50.966;11.038;2022-08-19T02:56:46;14.85;;;12.20;;
30380;SDS011;17169;50.966;11.038;2022-08-19T02:59:48;15.73;;;13.20;;
30380;SDS011;17169;50.966;11.038;2022-08-19T03:02:51;19.27;;;14.50;;
30380;SDS011;17169;50.966;11.038;2022-08-19T03:06:02;17.73;;;14.05;;
30380;SDS011;17169;50.966;11.038;2022-08-19T03:09:06;22.88;;;15.80;;
30380;SDS011;17169;50.966;11.038;2022-08-19T03:12:10;22.55;;;16.02;;
30380;SDS011;17169;50.966;11.038;2022-08-19T03:15:13;21.73;;;15.40;;
30380;SDS011;17169;50.966;11.038;2022-08-19T03:18:16;22.77;;;16.00;;
30380;SDS011;17169;50.966;11.038;2022-08-19T03:21:19;21.08;;;16.63;;
30380;SDS011;17169;50.966;11.038;2022-08-19T03:24:22;20.87;;;16.00;;
30380;SDS011;17169;50.966;11.038;2022-08-19T03:27:27;22.17;;;15.45;;
30380;SDS011;17169;50.966;11.038;2022-08-19T03:30:30;21.47;;;16.57;;
30380;SDS011;17169;50.966;11.038;2022-08-19T03:33:33;19.00;;;14.32;;
30380;SDS011;17169;50.966;11.038;2022-08-19T03:36:36;18.85;;;14.68;;
30380;SDS011;17169;50.966;11.038;2022-08-19T03:39:39;19.48;;;13.63;;
30380;SDS011;17169;50.966;11.038;2022-08-19T03:42:44;25.30;;;14.98;;
30380;SDS011;17169;50.966;11.038;2022-08-19T03:45:46;25.27;;;14.48;;
30380;SDS011;17169;50.966;11.038;2022-08-19T03:48:50;20.52;;;13.50;;
30380;SDS011;17169;50.966;11.038;2022-08-19T03:51:54;17.98;;;13.43;;
30380;SDS011;17169;50.966;11.038;2022-08-19T03:54:58;20.77;;;14.20;;
30380;SDS011;17169;50.966;11.038;2022-08-19T03:58:02;20.85;;;13.77;;
30380;SDS011;17169;50.966;11.038;2022-08-19T04:01:06;17.42;;;13.27;;
30380;SDS011;17169;50.966;11.038;2022-08-19T04:07:12;18.20;;;13.50;;
30380;SDS011;17169;50.966;11.038;2022-08-19T04:10:16;22.40;;;14.10;;
30380;SDS011;17169;50.966;11.038;2022-08-19T04:13:20;23.52;;;14.35;;
30380;SDS011;17169;50.966;11.038;2022-08-19T04:16:23;21.50;;;14.57;;
30380;SDS011;17169;50.966;11.038;2022-08-19T04:19:30;17.30;;;14.52;;
30380;SDS011;17169;50.966;11.038;2022-08-19T04:22:33;20.90;;;15.93;;
30380;SDS011;17169;50.966;11.038;2022-08-19T04:25:37;21.02;;;14.60;;
30380;SDS011;17169;50.966;11.038;2022-08-19T04:28:42;19.27;;;14.10;;
30380;SDS011;17169;50.966;11.038;2022-08-19T04:31:45;19.67;;;14.50;;
30380;SDS011;17169;50.966;11.038;2022-08-19T04:34:47;19.85;;;15.02;;
30380;SDS011;17169;50.966;11.038;2022-08-19T04:37:50;27.52;;;15.85;;
30380;SDS011;17169;50.966;11.038;2022-08-19T04:40:52;19.38;;;14.80;;
30380;SDS011;17169;50.966;11.038;2022-08-19T04:44:13;18.13;;;14.73;;
30380;SDS011;17169;50.966;11.038;2022-08-19T04:47:18;25.23;;;16.38;;
30380;SDS011;17169;50.966;11.038;2022-08-19T04:50:20;23.83;;;18.13;;
30380;SDS011;17169;50.966;11.038;2022-08-19T04:53:23;24.13;;;16.50;;
30380;SDS011;17169;50.966;11.038;2022-08-19T04:56:29;25.30;;;16.55;;
30380;SDS011;17169;50.966;11.038;2022-08-19T04:59:32;22.42;;;16.55;;
30380;SDS011;17169;50.966;11.038;2022-08-19T05:02:36;22.10;;;16.65;;
30380;SDS011;17169;50.966;11.038;2022-08-19T05:05:39;24.95;;;17.02;;
30380;SDS011;17169;50.966;11.038;2022-08-19T05:08:42;22.90;;;16.95;;
30380;SDS011;17169;50.966;11.038;2022-08-19T05:11:45;23.27;;;17.13;;
30380;SDS011;17169;50.966;11.038;2022-08-19T05:14:50;24.50;;;18.38;;
30380;SDS011;17169;50.966;11.038;2022-08-19T05:17:52;26.50;;;16.70;;
30380;SDS011;17169;50.966;11.038;2022-08-19T05:21:13;24.40;;;16.42;;
30380;SDS011;17169;50.966;11.038;2022-08-19T05:24:34;25.83;;;17.58;;
30380;SDS011;17169;50.966;11.038;2022-08-19T05:27:38;25.95;;;16.77;;
30380;SDS011;17169;50.966;11.038;2022-08-19T05:30:42;26.40;;;18.05;;
30380;SDS011;17169;50.966;11.038;2022-08-19T05:33:45;32.23;;;17.63;;
30380;SDS011;17169;50.966;11.038;2022-08-19T05:36:48;24.88;;;17.30;;
30380;SDS011;17169;50.966;11.038;2022-08-19T05:39:55;20.80;;;16.90;;
30380;SDS011;17169;50.966;11.038;2022-08-19T05:42:58;29.67;;;17.38;;
30380;SDS011;17169;50.966;11.038;2022-08-19T05:46:02;28.35;;;16.88;;
30380;SDS011;17169;50.966;11.038;2022-08-19T05:49:05;20.65;;;17.27;;
30380;SDS011;17169;50.966;11.038;2022-08-19T05:52:09;20.50;;;16.40;;
30380;SDS011;17169;50.966;11.038;2022-08-19T05:55:13;21.70;;;16.35;;
30380;SDS011;17169;50.966;11.038;2022-08-19T05:58:15;22.10;;;15.43;;
30380;SDS011;17169;50.966;11.038;2022-08-19T06:01:19;21.35;;;14.63;;
30380;SDS011;17169;50.966;11.038;2022-08-19T06:04:22;19.83;;;14.30;;
30380;SDS011;17169;50.966;11.038;2022-08-19T06:07:25;19.83;;;14.70;;
30380;SDS011;17169;50.966;11.038;2022-08-19T06:10:29;20.60;;;14.48;;
30380;SDS011;17169;50.966;11.038;2022-08-19T06:13:31;15.82;;;13.63;;
30380;SDS011;17169;50.966;11.038;2022-08-19T06:16:35;20.67;;;14.10;;
30380;SDS011;17169;50.966;11.038;2022-08-19T06:19:39;21.90;;;12.82;;
30380;SDS011;17169;50.966;11.038;2022-08-19T06:22:44;17.05;;;11.25;;
30380;SDS011;17169;50.966;11.038;2022-08-19T06:25:48;17.10;;;10.75;;
30380;SDS011;17169;50.966;11.038;2022-08-19T06:28:51;12.57;;;9.32;;
30380;SDS011;17169;50.966;11.038;2022-08-19T06:31:55;16.88;;;9.75;;
30380;SDS011;17169;50.966;11.038;2022-08-19T06:34:59;14.55;;;9.10;;
30380;SDS011;17169;50.966;11.038;2022-08-19T06:38:01;18.02;;;9.23;;
30380;SDS011;17169;50.966;11.038;2022-08-19T06:41:05;14.30;;;8.10;;
30380;SDS011;17169;50.966;11.038;2022-08-19T06:44:08;11.68;;;7.75;;
30380;SDS011;17169;50.966;11.038;2022-08-19T06:47:14;12.82;;;7.70;;
30380;SDS011;17169;50.966;11.038;2022-08-19T06:50:18;9.95;;;6.97;;
30380;SDS011;17169;50.966;11.038;2022-08-19T06:53:21;11.80;;;7.25;;
30380;SDS011;17169;50.966;11.038;2022-08-19T06:56:25;12.02;;;7.13;;
30380;SDS011;17169;50.966;11.038;2022-08-19T06:59:34;12.07;;;6.50;;
30380;SDS011;17169;50.966;11.038;2022-08-19T07:02:38;13.80;;;6.40;;
30380;SDS011;17169;50.966;11.038;2022-08-19T07:05:41;15.65;;;7.07;;
30380;SDS011;17169;50.966;11.038;2022-08-19T07:08:44;12.07;;;6.43;;
30380;SDS011;17169;50.966;11.038;2022-08-19T07:11:48;12.37;;;6.37;;
30380;SDS011;17169;50.966;11.038;2022-08-19T07:14:52;11.55;;;5.85;;
30380;SDS011;17169;50.966;11.038;2022-08-19T07:17:56;17.35;;;6.38;;
30380;SDS011;17169;50.966;11.038;2022-08-19T07:21:02;8.68;;;6.22;;
30380;SDS011;17169;50.966;11.038;2022-08-19T07:24:06;9.82;;;5.63;;
30380;SDS011;17169;50.966;11.038;2022-08-19T07:27:09;6.90;;;5.20;;
30380;SDS011;17169;50.966;11.038;2022-08-19T07:30:11;8.80;;;5.38;;
30380;SDS011;17169;50.966;11.038;2022-08-19T07:33:15;11.80;;;5.43;;
30380;SDS011;17169;50.966;11.038;2022-08-19T07:36:20;9.93;;;4.73;;
30380;SDS011;17169;50.966;11.038;2022-08-19T07:39:25;10.02;;;4.88;;
30380;SDS011;17169;50.966;11.038;2022-08-19T07:42:29;11.15;;;5.10;;
30380;SDS011;17169;50.966;11.038;2022-08-19T07:45:32;10.45;;;5.15;;
30380;SDS011;17169;50.966;11.038;2022-08-19T07:48:35;7.45;;;4.72;;
30380;SDS011;17169;50.966;11.038;2022-08-19T07:51:38;10.10;;;4.97;;
30380;SDS011;17169;50.966;11.038;2022-08-19T07:54:40;10.05;;;4.90;;
30380;SDS011;17169;50.966;11.038;2022-08-19T07:57:43;9.20;;;4.93;;
30380;SDS011;17169;50.966;11.038;2022-08-19T08:00:46;6.07;;;3.63;;
30380;SDS011;17169;50.966;11.038;2022-08-19T08:03:52;8.32;;;4.22;;
30380;SDS011;17169;50.966;11.038;2022-08-19T08:07:13;9.77;;;3.65;;
30380;SDS011;17169;50.966;11.038;2022-08-19T08:10:33;6.82;;;4.10;;
30380;SDS011;17169;50.966;11.038;2022-08-19T08:13:36;8.07;;;3.67;;
30380;SDS011;17169;50.966;11.038;2022-08-19T08:16:38;6.60;;;2.88;;
30380;SDS011;17169;50.966;11.038;2022-08-19T08:19:43;12.55;;;4.25;;
30380;SDS011;17169;50.966;11.038;2022-08-19T08:22:47;6.18;;;3.40;;
30380;SDS011;17169;50.966;11.038;2022-08-19T08:26:07;12.95;;;3.35;;
30380;SDS011;17169;50.966;11.038;2022-08-19T08:29:10;8.38;;;3.80;;
30380;SDS011;17169;50.966;11.038;2022-08-19T08:32:13;9.18;;;3.67;;
30380;SDS011;17169;50.966;11.038;2022-08-19T08:35:18;8.93;;;3.50;;
30380;SDS011;17169;50.966;11.038;2022-08-19T08:38:23;9.07;;;3.75;;
30380;SDS011;17169;50.966;11.038;2022-08-19T08:41:28;9.25;;;3.65;;
30380;SDS011;17169;50.966;11.038;2022-08-19T08:44:39;7.55;;;3.33;;
30380;SDS011;17169;50.966;11.038;2022-08-19T08:47:49;6.65;;;3.10;;
30380;SDS011;17169;50.966;11.038;2022-08-19T08:50:55;8.23;;;3.60;;
30380;SDS011;17169;50.966;11.038;2022-08-19T08:54:02;7.32;;;3.58;;
30380;SDS011;17169;50.966;11.038;2022-08-19T08:57:09;4.97;;;3.13;;
30380;SDS011;17169;50.966;11.038;2022-08-19T09:00:16;6.65;;;3.35;;
30380;SDS011;17169;50.966;11.038;2022-08-19T09:03:22;6.63;;;2.70;;
30380;SDS011;17169;50.966;11.038;2022-08-19T09:06:32;7.10;;;2.50;;
30380;SDS011;17169;50.966;11.038;2022-08-19T09:09:41;7.60;;;2.80;;
30380;SDS011;17169;50.966;11.038;2022-08-19T09:12:46;5.00;;;2.83;;
30380;SDS011;17169;50.966;11.038;2022-08-19T09:15:57;5.80;;;2.58;;
30380;SDS011;17169;50.966;11.038;2022-08-19T09:19:04;7.93;;;2.70;;
30380;SDS011;17169;50.966;11.038;2022-08-19T09:22:09;3.65;;;2.25;;
30380;SDS011;17169;50.966;11.038;2022-08-19T09:25:12;10.10;;;2.55;;
30380;SDS011;17169;50.966;11.038;2022-08-19T09:28:17;5.18;;;2.42;;
30380;SDS011;17169;50.966;11.038;2022-08-19T09:31:20;6.63;;;1.95;;
30380;SDS011;17169;50.966;11.038;2022-08-19T09:34:24;5.30;;;2.07;;
30380;SDS011;17169;50.966;11.038;2022-08-19T09:37:27;4.70;;;2.00;;
30380;SDS011;17169;50.966;11.038;2022-08-19T09:40:31;3.17;;;1.83;;
30380;SDS011;17169;50.966;11.038;2022-08-19T09:43:33;3.65;;;1.70;;
30380;SDS011;17169;50.966;11.038;2022-08-19T09:46:37;7.95;;;2.17;;
30380;SDS011;17169;50.966;11.038;2022-08-19T09:49:39;2.78;;;1.58;;
30380;SDS011;17169;50.966;11.038;2022-08-19T09:52:43;5.10;;;1.67;;
30380;SDS011;17169;50.966;11.038;2022-08-19T09:55:46;7.78;;;1.83;;
30380;SDS011;17169;50.966;11.038;2022-08-19T09:58:48;5.00;;;1.90;;
30380;SDS011;17169;50.966;11.038;2022-08-19T10:01:51;5.63;;;1.90;;
30380;SDS011;17169;50.966;11.038;2022-08-19T10:04:54;8.15;;;2.03;;
30380;SDS011;17169;50.966;11.038;2022-08-19T10:08:16;6.40;;;1.73;;
30380;SDS011;17169;50.966;11.038;2022-08-19T10:11:20;5.95;;;1.85;;
30380;SDS011;17169;50.966;11.038;2022-08-19T10:14:22;4.68;;;1.83;;
30380;SDS011;17169;50.966;11.038;2022-08-19T10:17:25;5.40;;;2.13;;
30380;SDS011;17169;50.966;11.038;2022-08-19T10:20:27;12.10;;;2.00;;
30380;SDS011;17169;50.966;11.038;2022-08-19T10:23:32;4.93;;;1.77;;
30380;SDS011;17169;50.966;11.038;2022-08-19T10:26:35;3.53;;;1.98;;
30380;SDS011;17169;50.966;11.038;2022-08-19T10:29:38;6.47;;;1.70;;
30380;SDS011;17169;50.966;11.038;2022-08-19T10:32:41;5.97;;;1.80;;
30380;SDS011;17169;50.966;11.038;2022-08-19T10:35:46;5.93;;;2.08;;
30380;SDS011;17169;50.966;11.038;2022-08-19T10:38:51;8.30;;;2.00;;
30380;SDS011;17169;50.966;11.038;2022-08-19T10:41:57;6.20;;;1.85;;
30380;SDS011;17169;50.966;11.038;2022-08-19T10:45:00;4.53;;;2.00;;
30380;SDS011;17169;50.966;11.038;2022-08-19T10:48:03;4.90;;;2.00;;
30380;SDS011;17169;50.966;11.038;2022-08-19T10:51:05;6.43;;;2.15;;
30380;SDS011;17169;50.966;11.038;2022-08-19T10:54:27;6.45;;;2.70;;
30380;SDS011;17169;50.966;11.038;2022-08-19T10:57:43;8.00;;;2.50;;
30380;SDS011;17169;50.966;11.038;2022-08-19T11:00:50;6.85;;;2.58;;
30380;SDS011;17169;50.966;11.038;2022-08-19T11:03:54;7.70;;;3.03;;
30380;SDS011;17169;50.966;11.038;2022-08-19T11:06:57;9.10;;;3.75;;
30380;SDS011;17169;50.966;11.038;2022-08-19T11:10:01;7.88;;;4.32;;
30380;SDS011;17169;50.966;11.038;2022-08-19T11:13:04;7.57;;;4.07;;
30380;SDS011;17169;50.966;11.038;2022-08-19T11:16:07;5.57;;;3.70;;
30380;SDS011;17169;50.966;11.038;2022-08-19T11:19:12;7.20;;;4.43;;
30380;SDS011;17169;50.966;11.038;2022-08-19T11:22:17;6.82;;;4.15;;
30380;SDS011;17169;50.966;11.038;2022-08-19T11:25:21;7.95;;;4.43;;
30380;SDS011;17169;50.966;11.038;2022-08-19T11:28:24;11.45;;;4.57;;
30380;SDS011;17169;50.966;11.038;2022-08-19T11:31:27;6.47;;;3.90;;
30380;SDS011;17169;50.966;11.038;2022-08-19T11:34:32;8.93;;;4.18;;
30380;SDS011;17169;50.966;11.038;2022-08-19T11:37:35;6.45;;;3.80;;
30380;SDS011;17169;50.966;11.038;2022-08-19T11:40:39;8.10;;;4.63;;
30380;SDS011;17169;50.966;11.038;2022-08-19T11:43:42;6.53;;;4.40;;
30380;SDS011;17169;50.966;11.038;2022-08-19T11:46:45;6.50;;;4.03;;
30380;SDS011;17169;50.966;11.038;2022-08-19T11:49:47;5.70;;;3.88;;
30380;SDS011;17169;50.966;11.038;2022-08-19T11:52:50;8.35;;;3.45;;
30380;SDS011;17169;50.966;11.038;2022-08-19T11:55:57;5.97;;;3.42;;
30380;SDS011;17169;50.966;11.038;2022-08-19T11:59:00;7.35;;;2.80;;
30380;SDS011;17169;50.966;11.038;2022-08-19T12:02:03;4.50;;;2.97;;
30380;SDS011;17169;50.966;11.038;2022-08-19T12:05:05;5.72;;;2.85;;
30380;SDS011;17169;50.966;11.038;2022-08-19T12:08:08;5.55;;;2.78;;
30380;SDS011;17169;50.966;11.038;2022-08-19T12:11:14;6.23;;;2.53;;
30380;SDS011;17169;50.966;11.038;2022-08-19T12:14:17;5.03;;;2.77;;
30380;SDS011;17169;50.966;11.038;2022-08-19T12:17:19;4.57;;;2.72;;
30380;SDS011;17169;50.966;11.038;2022-08-19T12:20:22;9.15;;;3.78;;
30380;SDS011;17169;50.966;11.038;2022-08-19T12:23:26;4.70;;;3.20;;
30380;SDS011;17169;50.966;11.038;2022-08-19T12:26:30;6.68;;;2.70;;
30380;SDS011;17169;50.966;11.038;2022-08-19T12:29:33;9.55;;;3.40;;
30380;SDS011;17169;50.966;11.038;2022-08-19T12:32:35;10.73;;;4.18;;
30380;SDS011;17169;50.966;11.038;2022-08-19T12:35:39;6.82;;;3.03;;
30380;SDS011;17169;50.966;11.038;2022-08-19T12:38:42;8.48;;;3.25;;
30380;SDS011;17169;50.966;11.038;2022-08-19T12:41:47;4.55;;;3.05;;
30380;SDS011;17169;50.966;11.038;2022-08-19T12:44:49;5.88;;;2.88;;
30380;SDS011;17169;50.966;11.038;2022-08-19T12:47:53;6.75;;;2.83;;
30380;SDS011;17169;50.966;11.038;2022-08-19T12:50:55;6.47;;;2.70;;
30380;SDS011;17169;50.966;11.038;2022-08-19T12:53:58;5.03;;;2.28;;
30380;SDS011;17169;50.966;11.038;2022-08-19T12:57:05;6.43;;;2.80;;
30380;SDS011;17169;50.966;11.038;2022-08-19T13:00:10;6.45;;;2.35;;
30380;SDS011;17169;50.966;11.038;2022-08-19T13:03:14;8.25;;;2.75;;
30380;SDS011;17169;50.966;11.038;2022-08-19T13:06:17;5.55;;;2.00;;
30380;SDS011;17169;50.966;11.038;2022-08-19T13:09:19;3.83;;;2.00;;
30380;SDS011;17169;50.966;11.038;2022-08-19T13:12:23;4.80;;;2.03;;
30380;SDS011;17169;50.966;11.038;2022-08-19T13:18:31;11.80;;;2.10;;
30380;SDS011;17169;50.966;11.038;2022-08-19T13:21:33;8.05;;;2.20;;
30380;SDS011;17169;50.966;11.038;2022-08-19T13:24:36;3.35;;;1.60;;
30380;SDS011;17169;50.966;11.038;2022-08-19T13:27:40;7.82;;;2.00;;
30380;SDS011;17169;50.966;11.038;2022-08-19T13:30:46;2.20;;;1.63;;
30380;SDS011;17169;50.966;11.038;2022-08-19T13:34:07;4.47;;;2.05;;
30380;SDS011;17169;50.966;11.038;2022-08-19T13:37:10;3.42;;;2.45;;
30380;SDS011;17169;50.966;11.038;2022-08-19T13:40:13;4.80;;;2.05;;
30380;SDS011;17169;50.966;11.038;2022-08-19T13:43:20;3.15;;;1.80;;
30380;SDS011;17169;50.966;11.038;2022-08-19T13:46:25;8.30;;;1.80;;
30380;SDS011;17169;50.966;11.038;2022-08-19T13:49:28;8.10;;;1.70;;
30380;SDS011;17169;50.966;11.038;2022-08-19T13:52:31;6.53;;;1.83;;
30380;SDS011;17169;50.966;11.038;2022-08-19T13:55:33;2.47;;;1.40;;
30380;SDS011;17169;50.966;11.038;2022-08-19T13:58:39;3.17;;;1.38;;
30380;SDS011;17169;50.966;11.038;2022-08-19T14:01:42;3.47;;;2.10;;
30380;SDS011;17169;50.966;11.038;2022-08-19T14:04:44;3.60;;;1.17;;
30380;SDS011;17169;50.966;11.038;2022-08-19T14:07:47;2.50;;;1.30;;
30380;SDS011;17169;50.966;11.038;2022-08-19T14:10:49;4.50;;;1.20;;
30380;SDS011;17169;50.966;11.038;2022-08-19T14:13:53;6.93;;;1.65;;
30380;SDS011;17169;50.966;11.038;2022-08-19T14:16:55;1.88;;;1.02;;
30380;SDS011;17169;50.966;11.038;2022-08-19T14:19:58;3.60;;;1.85;;
30380;SDS011;17169;50.966;11.038;2022-08-19T14:23:04;2.53;;;1.25;;
30380;SDS011;17169;50.966;11.038;2022-08-19T14:26:08;3.80;;;1.30;;
30380;SDS011;17169;50.966;11.038;2022-08-19T14:29:14;2.22;;;1.20;;
30380;SDS011;17169;50.966;11.038;2022-08-19T14:32:16;2.60;;;1.13;;
30380;SDS011;17169;50.966;11.038;2022-08-19T14:35:19;2.50;;;1.55;;
30380;SDS011;17169;50.966;11.038;2022-08-19T14:38:22;2.28;;;1.00;;
30380;SDS011;17169;50.966;11.038;2022-08-19T14:41:25;1.88;;;1.25;;
30380;SDS011;17169;50.966;11.038;2022-08-19T14:44:30;1.80;;;1.15;;
30380;SDS011;17169;50.966;11.038;2022-08-19T14:47:34;2.70;;;1.27;;
30380;SDS011;17169;50.966;11.038;2022-08-19T14:50:36;2.85;;;1.20;;
30380;SDS011;17169;50.966;11.038;2022-08-19T14:53:39;2.70;;;1.33;;
30380;SDS011;17169;50.966;11.038;2022-08-19T14:56:41;4.50;;;1.20;;
30380;SDS011;17169;50.966;11.038;2022-08-19T14:59:45;2.70;;;1.40;;
30380;SDS011;17169;50.966;11.038;2022-08-19T15:02:48;2.90;;;1.00;;
30380;SDS011;17169;50.966;11.038;2022-08-19T15:05:51;4.75;;;1.20;;
30380;SDS011;17169;50.966;11.038;2022-08-19T15:08:53;3.22;;;1.40;;
30380;SDS011;17169;50.966;11.038;2022-08-19T15:11:56;2.72;;;1.20;;
30380;SDS011;17169;50.966;11.038;2022-08-19T15:15:01;6.25;;;1.45;;
30380;SDS011;17169;50.966;11.038;2022-08-19T15:18:05;5.53;;;1.38;;
30380;SDS011;17169;50.966;11.038;2022-08-19T15:21:07;3.13;;;1.48;;
30380;SDS011;17169;50.966;11.038;2022-08-19T15:24:09;3.47;;;1.50;;
30380;SDS011;17169;50.966;11.038;2022-08-19T15:27:13;4.70;;;1.50;;
30380;SDS011;17169;50.966;11.038;2022-08-19T15:30:19;2.78;;;1.27;;
30380;SDS011;17169;50.966;11.038;2022-08-19T15:33:23;2.50;;;1.20;;
30380;SDS011;17169;50.966;11.038;2022-08-19T15:36:26;3.15;;;1.38;;
30380;SDS011;17169;50.966;11.038;2022-08-19T15:39:29;3.38;;;1.30;;
30380;SDS011;17169;50.966;11.038;2022-08-19T15:42:31;2.33;;;1.42;;
30380;SDS011;17169;50.966;11.038;2022-08-19T15:45:35;4.18;;;1.90;;
30380;SDS011;17169;50.966;11.038;2022-08-19T15:48:39;4.07;;;2.25;;
30380;SDS011;17169;50.966;11.038;2022-08-19T15:51:42;3.95;;;1.67;;
30380;SDS011;17169;50.966;11.038;2022-08-19T15:54:46;3.17;;;1.52;;
30380;SDS011;17169;50.966;11.038;2022-08-19T15:57:48;3.55;;;2.13;;
30380;SDS011;17169;50.966;11.038;2022-08-19T16:01:09;3.45;;;1.70;;
30380;SDS011;17169;50.966;11.038;2022-08-19T16:04:44;3.78;;;1.40;;
30380;SDS011;17169;50.966;11.038;2022-08-19T16:08:03;5.57;;;1.83;;
30380;SDS011;17169;50.966;11.038;2022-08-19T16:11:07;3.92;;;1.60;;
30380;SDS011;17169;50.966;11.038;2022-08-19T16:14:12;3.77;;;1.60;;
30380;SDS011;17169;50.966;11.038;2022-08-19T16:17:16;2.83;;;1.63;;
30380;SDS011;17169;50.966;11.038;2022-08-19T16:20:19;7.30;;;1.55;;
30380;SDS011;17169;50.966;11.038;2022-08-19T16:23:22;8.63;;;2.38;;
30380;SDS011;17169;50.966;11.038;2022-08-19T16:26:24;5.03;;;1.58;;
30380;SDS011;17169;50.966;11.038;2022-08-19T16:29:29;3.10;;;2.00;;
30380;SDS011;17169;50.966;11.038;2022-08-19T16:32:33;2.92;;;1.88;;
30380;SDS011;17169;50.966;11.038;2022-08-19T16:35:36;5.47;;;1.70;;
30380;SDS011;17169;50.966;11.038;2022-08-19T16:38:39;3.03;;;1.60;;
30380;SDS011;17169;50.966;11.038;2022-08-19T16:41:42;7.10;;;1.83;;
30380;SDS011;17169;50.966;11.038;2022-08-19T16:44:45;5.15;;;1.77;;
30380;SDS011;17169;50.966;11.038;2022-08-19T16:47:49;5.45;;;1.60;;
30380;SDS011;17169;50.966;11.038;2022-08-19T16:50:52;5.60;;;1.45;;
30380;SDS011;17169;50.966;11.038;2022-08-19T16:53:54;7.43;;;1.85;;
30380;SDS011;17169;50.966;11.038;2022-08-19T16:56:57;3.90;;;1.60;;
30380;SDS011;17169;50.966;11.038;2022-08-19T16:59:59;3.92;;;1.77;;
30380;SDS011;17169;50.966;11.038;2022-08-19T17:03:08;6.65;;;1.70;;
30380;SDS011;17169;50.966;11.038;2022-08-19T17:06:12;3.53;;;1.88;;
30380;SDS011;17169;50.966;11.038;2022-08-19T17:12:18;3.70;;;2.35;;
30380;SDS011;17169;50.966;11.038;2022-08-19T17:15:21;3.67;;;1.77;;
30380;SDS011;17169;50.966;11.038;2022-08-19T17:18:25;4.55;;;1.95;;
30380;SDS011;17169;50.966;11.038;2022-08-19T17:21:28;3.23;;;1.80;;
30380;SDS011;17169;50.966;11.038;2022-08-19T17:24:32;2.78;;;1.80;;
30380;SDS011;17169;50.966;11.038;2022-08-19T17:27:35;3.85;;;1.88;;
30380;SDS011;17169;50.966;11.038;2022-08-19T17:30:38;4.25;;;2.20;;
30380;SDS011;17169;50.966;11.038;2022-08-19T17:33:42;4.57;;;2.08;;
30380;SDS011;17169;50.966;11.038;2022-08-19T17:36:44;4.30;;;2.17;;
30380;SDS011;17169;50.966;11.038;2022-08-19T17:39:46;3.22;;;2.00;;
30380;SDS011;17169;50.966;11.038;2022-08-19T17:42:49;3.92;;;2.13;;
30380;SDS011;17169;50.966;11.038;2022-08-19T17:45:53;4.28;;;2.40;;
30380;SDS011;17169;50.966;11.038;2022-08-19T17:48:57;6.25;;;2.15;;
30380;SDS011;17169;50.966;11.038;2022-08-19T17:52:00;3.22;;;1.90;;
30380;SDS011;17169;50.966;11.038;2022-08-19T17:55:02;3.20;;;1.88;;
30380;SDS011;17169;50.966;11.038;2022-08-19T17:58:06;6.15;;;1.75;;
30380;SDS011;17169;50.966;11.038;2022-08-19T18:01:08;2.63;;;1.88;;
30380;SDS011;17169;50.966;11.038;2022-08-19T18:04:13;11.23;;;2.25;;
30380;SDS011;17169;50.966;11.038;2022-08-19T18:07:16;6.25;;;2.20;;
30380;SDS011;17169;50.966;11.038;2022-08-19T18:10:21;5.95;;;2.05;;
30380;SDS011;17169;50.966;11.038;2022-08-19T18:13:25;6.22;;;2.00;;
30380;SDS011;17169;50.966;11.038;2022-08-19T18:16:28;4.65;;;2.08;;